sensor_id;sensor_type;location;lat;lon;timestamp;P1;durP1;ratioP1;P2;durP2;ratioP2
40459;SDS011;26164;51.138;16.952;2023-07-02T00:01:51;10.57;;;6.30;;
40459;SDS011;26164;51.138;16.952;2023-07-02T00:04:17;11.75;;;6.47;;
40459;SDS011;26164;51.138;16.952;2023-07-02T00:06:47;12.23;;;5.47;;
40459;SDS011;26164;51.138;16.952;2023-07-02T00:09:13;14.20;;;5.95;;
40459;SDS011;26164;51.138;16.952;2023-07-02T00:11:41;11.02;;;6.10;;
40459;SDS011;26164;51.138;16.952;2023-07-02T00:14:07;9.82;;;5.22;;
40459;SDS011;26164;51.138;16.952;2023-07-02T00:16:33;12.77;;;5.07;;
40459;SDS011;26164;51.138;16.952;2023-07-02T00:18:59;11.75;;;5.30;;
40459;SDS011;26164;51.138;16.952;2023-07-02T00:21:28;9.65;;;5.03;;
40459;SDS011;26164;51.138;16.952;2023-07-02T00:23:57;10.55;;;5.55;;
40459;SDS011;26164;51.138;16.952;2023-07-02T00:26:26;7.70;;;4.72;;
40459;SDS011;26164;51.138;16.952;2023-07-02T00:28:55;8.45;;;4.60;;
40459;SDS011;26164;51.138;16.952;2023-07-02T00:31:22;6.30;;;4.00;;
40459;SDS011;26164;51.138;16.952;2023-07-02T00:33:48;8.85;;;4.15;;
40459;SDS011;26164;51.138;16.952;2023-07-02T00:36:14;6.53;;;3.42;;
40459;SDS011;26164;51.138;16.952;2023-07-02T00:38:46;5.70;;;3.33;;
40459;SDS011;26164;51.138;16.952;2023-07-02T00:41:15;7.53;;;3.10;;
40459;SDS011;26164;51.138;16.952;2023-07-02T00:43:41;5.63;;;2.72;;
40459;SDS011;26164;51.138;16.952;2023-07-02T00:46:11;7.72;;;2.88;;
40459;SDS011;26164;51.138;16.952;2023-07-02T00:48:38;4.15;;;2.20;;
40459;SDS011;26164;51.138;16.952;2023-07-02T00:51:04;5.72;;;2.17;;
40459;SDS011;26164;51.138;16.952;2023-07-02T00:53:30;5.22;;;2.42;;
40459;SDS011;26164;51.138;16.952;2023-07-02T00:55:58;5.00;;;1.98;;
40459;SDS011;26164;51.138;16.952;2023-07-02T00:58:23;4.63;;;2.00;;
40459;SDS011;26164;51.138;16.952;2023-07-02T01:00:50;4.00;;;1.90;;
40459;SDS011;26164;51.138;16.952;2023-07-02T01:03:15;3.40;;;1.70;;
40459;SDS011;26164;51.138;16.952;2023-07-02T01:05:41;4.28;;;1.55;;
40459;SDS011;26164;51.138;16.952;2023-07-02T01:08:08;3.92;;;1.75;;
40459;SDS011;26164;51.138;16.952;2023-07-02T01:10:36;4.38;;;1.65;;
40459;SDS011;26164;51.138;16.952;2023-07-02T01:13:09;5.22;;;1.75;;
40459;SDS011;26164;51.138;16.952;2023-07-02T01:15:37;7.13;;;1.38;;
40459;SDS011;26164;51.138;16.952;2023-07-02T01:18:03;3.75;;;1.35;;
40459;SDS011;26164;51.138;16.952;2023-07-02T01:20:30;3.13;;;1.30;;
40459;SDS011;26164;51.138;16.952;2023-07-02T01:22:57;4.40;;;1.48;;
40459;SDS011;26164;51.138;16.952;2023-07-02T01:25:24;4.28;;;1.52;;
40459;SDS011;26164;51.138;16.952;2023-07-02T01:27:50;3.25;;;1.30;;
40459;SDS011;26164;51.138;16.952;2023-07-02T01:30:17;6.22;;;1.50;;
40459;SDS011;26164;51.138;16.952;2023-07-02T01:32:43;5.88;;;1.40;;
40459;SDS011;26164;51.138;16.952;2023-07-02T01:35:09;5.85;;;1.90;;
40459;SDS011;26164;51.138;16.952;2023-07-02T01:37:36;3.25;;;1.58;;
40459;SDS011;26164;51.138;16.952;2023-07-02T01:40:03;6.43;;;1.92;;
40459;SDS011;26164;51.138;16.952;2023-07-02T01:42:31;4.82;;;1.58;;
40459;SDS011;26164;51.138;16.952;2023-07-02T01:44:57;5.10;;;1.80;;
40459;SDS011;26164;51.138;16.952;2023-07-02T01:47:23;4.25;;;1.88;;
40459;SDS011;26164;51.138;16.952;2023-07-02T01:49:49;4.43;;;1.75;;
40459;SDS011;26164;51.138;16.952;2023-07-02T01:52:15;6.53;;;1.80;;
40459;SDS011;26164;51.138;16.952;2023-07-02T01:54:41;4.63;;;1.40;;
40459;SDS011;26164;51.138;16.952;2023-07-02T01:57:08;3.42;;;1.65;;
40459;SDS011;26164;51.138;16.952;2023-07-02T01:59:34;4.25;;;1.50;;
40459;SDS011;26164;51.138;16.952;2023-07-02T02:02:00;3.35;;;1.23;;
40459;SDS011;26164;51.138;16.952;2023-07-02T02:04:26;2.92;;;1.20;;
40459;SDS011;26164;51.138;16.952;2023-07-02T02:06:52;6.43;;;1.55;;
40459;SDS011;26164;51.138;16.952;2023-07-02T02:09:18;2.05;;;1.10;;
40459;SDS011;26164;51.138;16.952;2023-07-02T02:11:50;4.00;;;1.23;;
40459;SDS011;26164;51.138;16.952;2023-07-02T02:14:16;3.80;;;1.20;;
40459;SDS011;26164;51.138;16.952;2023-07-02T02:16:42;3.42;;;1.23;;
40459;SDS011;26164;51.138;16.952;2023-07-02T02:19:11;2.15;;;1.30;;
40459;SDS011;26164;51.138;16.952;2023-07-02T02:21:37;5.07;;;1.20;;
40459;SDS011;26164;51.138;16.952;2023-07-02T02:24:03;2.63;;;1.20;;
40459;SDS011;26164;51.138;16.952;2023-07-02T02:26:29;3.72;;;1.10;;
40459;SDS011;26164;51.138;16.952;2023-07-02T02:28:56;4.85;;;1.40;;
40459;SDS011;26164;51.138;16.952;2023-07-02T02:31:22;6.20;;;1.50;;
40459;SDS011;26164;51.138;16.952;2023-07-02T02:33:48;4.68;;;1.17;;
40459;SDS011;26164;51.138;16.952;2023-07-02T02:36:15;4.47;;;1.10;;
40459;SDS011;26164;51.138;16.952;2023-07-02T02:38:41;3.25;;;1.13;;
40459;SDS011;26164;51.138;16.952;2023-07-02T02:41:07;3.80;;;1.13;;
40459;SDS011;26164;51.138;16.952;2023-07-02T02:43:40;2.20;;;1.20;;
40459;SDS011;26164;51.138;16.952;2023-07-02T02:46:06;3.13;;;1.00;;
40459;SDS011;26164;51.138;16.952;2023-07-02T02:48:33;2.20;;;0.90;;
40459;SDS011;26164;51.138;16.952;2023-07-02T02:50:59;2.70;;;0.90;;
40459;SDS011;26164;51.138;16.952;2023-07-02T02:53:24;8.48;;;0.90;;
40459;SDS011;26164;51.138;16.952;2023-07-02T02:55:50;1.13;;;0.50;;
40459;SDS011;26164;51.138;16.952;2023-07-02T02:58:16;2.60;;;0.68;;
40459;SDS011;26164;51.138;16.952;2023-07-02T03:00:42;2.30;;;0.75;;
40459;SDS011;26164;51.138;16.952;2023-07-02T03:03:12;3.67;;;0.60;;
40459;SDS011;26164;51.138;16.952;2023-07-02T03:05:38;2.75;;;0.50;;
40459;SDS011;26164;51.138;16.952;2023-07-02T03:08:05;2.00;;;0.70;;
40459;SDS011;26164;51.138;16.952;2023-07-02T03:10:30;1.60;;;0.50;;
40459;SDS011;26164;51.138;16.952;2023-07-02T03:12:56;1.83;;;0.70;;
40459;SDS011;26164;51.138;16.952;2023-07-02T03:15:22;1.30;;;0.63;;
40459;SDS011;26164;51.138;16.952;2023-07-02T03:17:48;1.50;;;0.73;;
40459;SDS011;26164;51.138;16.952;2023-07-02T03:20:14;4.45;;;0.70;;
40459;SDS011;26164;51.138;16.952;2023-07-02T03:22:39;3.75;;;0.70;;
40459;SDS011;26164;51.138;16.952;2023-07-02T03:25:05;1.70;;;0.60;;
40459;SDS011;26164;51.138;16.952;2023-07-02T03:27:31;2.00;;;0.70;;
40459;SDS011;26164;51.138;16.952;2023-07-02T03:29:57;2.20;;;0.60;;
40459;SDS011;26164;51.138;16.952;2023-07-02T03:32:24;1.50;;;0.70;;
40459;SDS011;26164;51.138;16.952;2023-07-02T03:34:49;2.80;;;0.90;;
40459;SDS011;26164;51.138;16.952;2023-07-02T03:37:15;4.03;;;2.20;;
40459;SDS011;26164;51.138;16.952;2023-07-02T03:39:41;5.38;;;1.40;;
40459;SDS011;26164;51.138;16.952;2023-07-02T03:42:07;3.28;;;1.70;;
40459;SDS011;26164;51.138;16.952;2023-07-02T03:44:33;1.75;;;0.98;;
40459;SDS011;26164;51.138;16.952;2023-07-02T03:46:59;2.53;;;1.02;;
40459;SDS011;26164;51.138;16.952;2023-07-02T03:49:24;2.58;;;1.00;;
40459;SDS011;26164;51.138;16.952;2023-07-02T03:51:50;1.55;;;0.65;;
40459;SDS011;26164;51.138;16.952;2023-07-02T03:54:16;3.28;;;0.82;;
40459;SDS011;26164;51.138;16.952;2023-07-02T03:56:42;2.97;;;1.10;;
40459;SDS011;26164;51.138;16.952;2023-07-02T03:59:08;4.15;;;1.80;;
40459;SDS011;26164;51.138;16.952;2023-07-02T04:01:35;3.00;;;1.05;;
40459;SDS011;26164;51.138;16.952;2023-07-02T04:04:00;3.60;;;1.27;;
40459;SDS011;26164;51.138;16.952;2023-07-02T04:06:28;2.72;;;1.08;;
40459;SDS011;26164;51.138;16.952;2023-07-02T04:08:53;2.42;;;1.20;;
40459;SDS011;26164;51.138;16.952;2023-07-02T04:11:19;2.00;;;1.00;;
40459;SDS011;26164;51.138;16.952;2023-07-02T04:13:45;4.15;;;1.40;;
40459;SDS011;26164;51.138;16.952;2023-07-02T04:16:11;4.65;;;1.20;;
40459;SDS011;26164;51.138;16.952;2023-07-02T04:18:37;3.63;;;1.30;;
40459;SDS011;26164;51.138;16.952;2023-07-02T04:21:03;2.85;;;1.23;;
40459;SDS011;26164;51.138;16.952;2023-07-02T04:23:28;4.95;;;1.20;;
40459;SDS011;26164;51.138;16.952;2023-07-02T04:25:54;3.60;;;1.38;;
40459;SDS011;26164;51.138;16.952;2023-07-02T04:28:20;3.00;;;1.10;;
40459;SDS011;26164;51.138;16.952;2023-07-02T04:30:46;2.78;;;1.10;;
40459;SDS011;26164;51.138;16.952;2023-07-02T04:33:15;3.28;;;1.10;;
40459;SDS011;26164;51.138;16.952;2023-07-02T04:35:41;2.05;;;0.90;;
40459;SDS011;26164;51.138;16.952;2023-07-02T04:38:07;2.72;;;1.02;;
40459;SDS011;26164;51.138;16.952;2023-07-02T04:40:34;3.28;;;1.13;;
40459;SDS011;26164;51.138;16.952;2023-07-02T04:42:59;2.70;;;1.10;;
40459;SDS011;26164;51.138;16.952;2023-07-02T04:45:26;2.60;;;1.00;;
40459;SDS011;26164;51.138;16.952;2023-07-02T04:47:51;2.67;;;1.25;;
40459;SDS011;26164;51.138;16.952;2023-07-02T04:50:18;3.80;;;1.40;;
40459;SDS011;26164;51.138;16.952;2023-07-02T04:52:43;3.50;;;1.15;;
40459;SDS011;26164;51.138;16.952;2023-07-02T04:55:09;3.67;;;1.30;;
40459;SDS011;26164;51.138;16.952;2023-07-02T04:57:35;3.90;;;1.30;;
40459;SDS011;26164;51.138;16.952;2023-07-02T05:00:01;2.10;;;1.10;;
40459;SDS011;26164;51.138;16.952;2023-07-02T05:02:29;2.55;;;1.10;;
40459;SDS011;26164;51.138;16.952;2023-07-02T05:04:55;4.88;;;1.30;;
40459;SDS011;26164;51.138;16.952;2023-07-02T05:07:21;2.30;;;1.20;;
40459;SDS011;26164;51.138;16.952;2023-07-02T05:09:47;3.80;;;1.60;;
40459;SDS011;26164;51.138;16.952;2023-07-02T05:12:14;3.30;;;1.30;;
40459;SDS011;26164;51.138;16.952;2023-07-02T05:14:40;3.25;;;1.20;;
40459;SDS011;26164;51.138;16.952;2023-07-02T05:17:06;2.67;;;1.33;;
40459;SDS011;26164;51.138;16.952;2023-07-02T05:19:31;3.53;;;1.48;;
40459;SDS011;26164;51.138;16.952;2023-07-02T05:21:57;2.15;;;1.17;;
40459;SDS011;26164;51.138;16.952;2023-07-02T05:24:23;2.60;;;1.35;;
40459;SDS011;26164;51.138;16.952;2023-07-02T05:26:49;2.92;;;1.25;;
40459;SDS011;26164;51.138;16.952;2023-07-02T05:29:16;5.60;;;1.35;;
40459;SDS011;26164;51.138;16.952;2023-07-02T05:31:41;2.88;;;1.25;;
40459;SDS011;26164;51.138;16.952;2023-07-02T05:34:07;2.10;;;1.20;;
40459;SDS011;26164;51.138;16.952;2023-07-02T05:36:33;5.40;;;1.17;;
40459;SDS011;26164;51.138;16.952;2023-07-02T05:39:00;3.15;;;1.10;;
40459;SDS011;26164;51.138;16.952;2023-07-02T05:41:26;4.25;;;1.30;;
40459;SDS011;26164;51.138;16.952;2023-07-02T05:43:56;3.35;;;1.30;;
40459;SDS011;26164;51.138;16.952;2023-07-02T05:46:23;3.33;;;1.20;;
40459;SDS011;26164;51.138;16.952;2023-07-02T05:48:49;2.33;;;1.20;;
40459;SDS011;26164;51.138;16.952;2023-07-02T05:51:22;2.88;;;1.23;;
40459;SDS011;26164;51.138;16.952;2023-07-02T05:53:48;3.00;;;1.20;;
40459;SDS011;26164;51.138;16.952;2023-07-02T05:56:14;4.00;;;1.75;;
40459;SDS011;26164;51.138;16.952;2023-07-02T05:58:40;4.63;;;1.60;;
40459;SDS011;26164;51.138;16.952;2023-07-02T06:01:05;2.30;;;1.35;;
40459;SDS011;26164;51.138;16.952;2023-07-02T06:03:32;6.05;;;1.33;;
40459;SDS011;26164;51.138;16.952;2023-07-02T06:05:58;2.75;;;1.20;;
40459;SDS011;26164;51.138;16.952;2023-07-02T06:08:24;4.22;;;1.50;;
40459;SDS011;26164;51.138;16.952;2023-07-02T06:10:50;3.80;;;1.40;;
40459;SDS011;26164;51.138;16.952;2023-07-02T06:13:16;2.42;;;1.40;;
40459;SDS011;26164;51.138;16.952;2023-07-02T06:15:42;4.50;;;1.80;;
40459;SDS011;26164;51.138;16.952;2023-07-02T06:18:08;2.47;;;1.25;;
40459;SDS011;26164;51.138;16.952;2023-07-02T06:20:33;2.92;;;1.40;;
40459;SDS011;26164;51.138;16.952;2023-07-02T06:22:59;2.78;;;1.60;;
40459;SDS011;26164;51.138;16.952;2023-07-02T06:25:25;3.47;;;1.55;;
40459;SDS011;26164;51.138;16.952;2023-07-02T06:27:51;5.05;;;1.70;;
40459;SDS011;26164;51.138;16.952;2023-07-02T06:30:20;3.33;;;1.40;;
40459;SDS011;26164;51.138;16.952;2023-07-02T06:32:46;3.05;;;1.60;;
40459;SDS011;26164;51.138;16.952;2023-07-02T06:35:11;2.92;;;1.50;;
40459;SDS011;26164;51.138;16.952;2023-07-02T06:37:37;2.72;;;1.70;;
40459;SDS011;26164;51.138;16.952;2023-07-02T06:40:03;3.35;;;1.90;;
40459;SDS011;26164;51.138;16.952;2023-07-02T06:42:30;3.42;;;1.90;;
40459;SDS011;26164;51.138;16.952;2023-07-02T06:44:55;4.13;;;2.00;;
40459;SDS011;26164;51.138;16.952;2023-07-02T06:47:21;5.22;;;2.00;;
40459;SDS011;26164;51.138;16.952;2023-07-02T06:49:47;3.25;;;2.25;;
40459;SDS011;26164;51.138;16.952;2023-07-02T06:52:13;5.38;;;2.65;;
40459;SDS011;26164;51.138;16.952;2023-07-02T06:54:38;2.97;;;2.13;;
40459;SDS011;26164;51.138;16.952;2023-07-02T06:57:05;2.08;;;1.40;;
40459;SDS011;26164;51.138;16.952;2023-07-02T06:59:31;3.35;;;2.03;;
40459;SDS011;26164;51.138;16.952;2023-07-02T07:01:57;3.65;;;2.20;;
40459;SDS011;26164;51.138;16.952;2023-07-02T07:04:22;3.85;;;2.00;;
40459;SDS011;26164;51.138;16.952;2023-07-02T07:06:48;8.27;;;1.67;;
40459;SDS011;26164;51.138;16.952;2023-07-02T07:09:14;3.15;;;1.75;;
40459;SDS011;26164;51.138;16.952;2023-07-02T07:11:40;4.20;;;1.92;;
40459;SDS011;26164;51.138;16.952;2023-07-02T07:14:05;2.92;;;2.10;;
40459;SDS011;26164;51.138;16.952;2023-07-02T07:16:31;2.30;;;1.45;;
40459;SDS011;26164;51.138;16.952;2023-07-02T07:18:57;5.72;;;2.58;;
40459;SDS011;26164;51.138;16.952;2023-07-02T07:21:23;4.53;;;2.13;;
40459;SDS011;26164;51.138;16.952;2023-07-02T07:23:49;2.83;;;1.92;;
40459;SDS011;26164;51.138;16.952;2023-07-02T07:26:15;2.40;;;1.63;;
40459;SDS011;26164;51.138;16.952;2023-07-02T07:28:40;2.90;;;1.65;;
40459;SDS011;26164;51.138;16.952;2023-07-02T07:31:07;3.33;;;1.80;;
40459;SDS011;26164;51.138;16.952;2023-07-02T07:33:32;3.60;;;1.52;;
40459;SDS011;26164;51.138;16.952;2023-07-02T07:35:58;2.53;;;1.30;;
40459;SDS011;26164;51.138;16.952;2023-07-02T07:38:25;4.80;;;1.92;;
40459;SDS011;26164;51.138;16.952;2023-07-02T07:40:51;3.28;;;1.42;;
40459;SDS011;26164;51.138;16.952;2023-07-02T07:43:17;2.78;;;1.50;;
40459;SDS011;26164;51.138;16.952;2023-07-02T07:45:43;2.80;;;1.27;;
40459;SDS011;26164;51.138;16.952;2023-07-02T07:48:08;2.33;;;1.50;;
40459;SDS011;26164;51.138;16.952;2023-07-02T07:50:35;2.95;;;1.40;;
40459;SDS011;26164;51.138;16.952;2023-07-02T07:53:00;3.38;;;1.80;;
40459;SDS011;26164;51.138;16.952;2023-07-02T07:55:27;2.05;;;1.40;;
40459;SDS011;26164;51.138;16.952;2023-07-02T07:57:52;3.88;;;1.50;;
40459;SDS011;26164;51.138;16.952;2023-07-02T08:00:18;3.17;;;1.30;;
40459;SDS011;26164;51.138;16.952;2023-07-02T08:02:45;3.83;;;1.60;;
40459;SDS011;26164;51.138;16.952;2023-07-02T08:05:11;3.00;;;1.90;;
40459;SDS011;26164;51.138;16.952;2023-07-02T08:07:39;2.95;;;1.85;;
40459;SDS011;26164;51.138;16.952;2023-07-02T08:10:31;2.53;;;1.63;;
40459;SDS011;26164;51.138;16.952;2023-07-02T08:13:13;3.15;;;1.67;;
40459;SDS011;26164;51.138;16.952;2023-07-02T08:15:51;2.47;;;1.60;;
40459;SDS011;26164;51.138;16.952;2023-07-02T08:18:21;3.20;;;1.70;;
40459;SDS011;26164;51.138;16.952;2023-07-02T08:20:48;3.03;;;1.80;;
40459;SDS011;26164;51.138;16.952;2023-07-02T08:23:15;3.10;;;1.80;;
40459;SDS011;26164;51.138;16.952;2023-07-02T08:25:55;4.13;;;2.00;;
40459;SDS011;26164;51.138;16.952;2023-07-02T08:28:26;3.95;;;2.17;;
40459;SDS011;26164;51.138;16.952;2023-07-02T08:30:52;5.47;;;2.33;;
40459;SDS011;26164;51.138;16.952;2023-07-02T08:33:20;2.33;;;1.90;;
40459;SDS011;26164;51.138;16.952;2023-07-02T08:35:46;5.30;;;1.77;;
40459;SDS011;26164;51.138;16.952;2023-07-02T08:38:13;2.55;;;2.00;;
40459;SDS011;26164;51.138;16.952;2023-07-02T08:40:41;3.15;;;2.50;;
40459;SDS011;26164;51.138;16.952;2023-07-02T08:43:14;6.25;;;2.40;;
40459;SDS011;26164;51.138;16.952;2023-07-02T08:45:45;2.83;;;2.00;;
40459;SDS011;26164;51.138;16.952;2023-07-02T08:48:38;3.17;;;2.13;;
40459;SDS011;26164;51.138;16.952;2023-07-02T08:51:08;3.83;;;1.88;;
40459;SDS011;26164;51.138;16.952;2023-07-02T08:53:35;2.47;;;1.80;;
40459;SDS011;26164;51.138;16.952;2023-07-02T08:56:17;5.03;;;1.83;;
40459;SDS011;26164;51.138;16.952;2023-07-02T08:58:51;3.67;;;1.40;;
40459;SDS011;26164;51.138;16.952;2023-07-02T09:01:22;2.63;;;1.83;;
40459;SDS011;26164;51.138;16.952;2023-07-02T09:04:03;3.60;;;1.88;;
40459;SDS011;26164;51.138;16.952;2023-07-02T09:06:36;2.95;;;1.67;;
40459;SDS011;26164;51.138;16.952;2023-07-02T09:09:05;4.43;;;1.33;;
40459;SDS011;26164;51.138;16.952;2023-07-02T09:11:31;3.33;;;2.00;;
40459;SDS011;26164;51.138;16.952;2023-07-02T09:13:58;2.70;;;1.45;;
40459;SDS011;26164;51.138;16.952;2023-07-02T09:16:27;2.80;;;1.80;;
40459;SDS011;26164;51.138;16.952;2023-07-02T09:19:03;2.47;;;1.45;;
40459;SDS011;26164;51.138;16.952;2023-07-02T09:24:11;3.28;;;1.67;;
40459;SDS011;26164;51.138;16.952;2023-07-02T09:26:38;4.43;;;1.55;;
40459;SDS011;26164;51.138;16.952;2023-07-02T09:29:03;2.85;;;1.60;;
40459;SDS011;26164;51.138;16.952;2023-07-02T09:31:29;3.45;;;1.50;;
40459;SDS011;26164;51.138;16.952;2023-07-02T09:34:01;2.50;;;1.48;;
40459;SDS011;26164;51.138;16.952;2023-07-02T09:36:27;3.65;;;1.70;;
40459;SDS011;26164;51.138;16.952;2023-07-02T09:38:52;2.05;;;1.40;;
40459;SDS011;26164;51.138;16.952;2023-07-02T09:41:18;1.98;;;1.20;;
40459;SDS011;26164;51.138;16.952;2023-07-02T09:43:44;2.70;;;1.50;;
40459;SDS011;26164;51.138;16.952;2023-07-02T09:46:10;2.85;;;1.40;;
40459;SDS011;26164;51.138;16.952;2023-07-02T09:48:35;2.17;;;1.55;;
40459;SDS011;26164;51.138;16.952;2023-07-02T09:51:02;4.30;;;1.80;;
40459;SDS011;26164;51.138;16.952;2023-07-02T09:53:28;3.72;;;1.90;;
40459;SDS011;26164;51.138;16.952;2023-07-02T09:55:55;3.33;;;1.70;;
40459;SDS011;26164;51.138;16.952;2023-07-02T09:58:21;3.97;;;1.60;;
40459;SDS011;26164;51.138;16.952;2023-07-02T10:00:47;3.78;;;1.65;;
40459;SDS011;26164;51.138;16.952;2023-07-02T10:03:15;3.92;;;2.05;;
40459;SDS011;26164;51.138;16.952;2023-07-02T10:05:41;2.58;;;1.17;;
40459;SDS011;26164;51.138;16.952;2023-07-02T10:08:28;2.28;;;1.33;;
40459;SDS011;26164;51.138;16.952;2023-07-02T10:11:12;7.30;;;1.40;;
40459;SDS011;26164;51.138;16.952;2023-07-02T10:13:39;2.58;;;1.30;;
40459;SDS011;26164;51.138;16.952;2023-07-02T10:16:05;3.60;;;1.13;;
40459;SDS011;26164;51.138;16.952;2023-07-02T10:18:35;3.60;;;1.25;;
40459;SDS011;26164;51.138;16.952;2023-07-02T10:21:16;2.78;;;1.05;;
40459;SDS011;26164;51.138;16.952;2023-07-02T10:23:42;2.28;;;1.30;;
40459;SDS011;26164;51.138;16.952;2023-07-02T10:26:15;4.35;;;1.13;;
40459;SDS011;26164;51.138;16.952;2023-07-02T10:28:41;2.42;;;1.10;;
40459;SDS011;26164;51.138;16.952;2023-07-02T10:31:17;2.83;;;1.40;;
40459;SDS011;26164;51.138;16.952;2023-07-02T10:33:43;2.28;;;1.20;;
40459;SDS011;26164;51.138;16.952;2023-07-02T10:36:17;1.80;;;1.10;;
40459;SDS011;26164;51.138;16.952;2023-07-02T10:38:42;2.25;;;1.02;;
40459;SDS011;26164;51.138;16.952;2023-07-02T10:41:08;2.58;;;1.15;;
40459;SDS011;26164;51.138;16.952;2023-07-02T10:43:34;2.55;;;0.90;;
40459;SDS011;26164;51.138;16.952;2023-07-02T10:46:00;2.92;;;1.23;;
40459;SDS011;26164;51.138;16.952;2023-07-02T10:48:26;3.10;;;1.33;;
40459;SDS011;26164;51.138;16.952;2023-07-02T10:50:53;3.55;;;1.20;;
40459;SDS011;26164;51.138;16.952;2023-07-02T10:53:22;3.85;;;1.10;;
40459;SDS011;26164;51.138;16.952;2023-07-02T10:55:55;2.30;;;1.10;;
40459;SDS011;26164;51.138;16.952;2023-07-02T10:58:22;6.30;;;1.40;;
40459;SDS011;26164;51.138;16.952;2023-07-02T11:00:50;5.75;;;1.10;;
40459;SDS011;26164;51.138;16.952;2023-07-02T11:03:24;3.67;;;1.27;;
40459;SDS011;26164;51.138;16.952;2023-07-02T11:05:54;3.38;;;1.20;;
40459;SDS011;26164;51.138;16.952;2023-07-02T11:08:19;5.43;;;1.33;;
40459;SDS011;26164;51.138;16.952;2023-07-02T11:10:47;5.03;;;1.20;;
40459;SDS011;26164;51.138;16.952;2023-07-02T11:13:13;2.92;;;1.20;;
40459;SDS011;26164;51.138;16.952;2023-07-02T11:15:39;3.33;;;0.90;;
40459;SDS011;26164;51.138;16.952;2023-07-02T11:18:17;2.60;;;1.17;;
40459;SDS011;26164;51.138;16.952;2023-07-02T11:20:45;5.03;;;1.20;;
40459;SDS011;26164;51.138;16.952;2023-07-02T11:23:20;4.18;;;1.30;;
40459;SDS011;26164;51.138;16.952;2023-07-02T11:25:59;3.60;;;1.20;;
40459;SDS011;26164;51.138;16.952;2023-07-02T11:28:25;1.27;;;0.85;;
40459;SDS011;26164;51.138;16.952;2023-07-02T11:30:53;2.70;;;1.17;;
40459;SDS011;26164;51.138;16.952;2023-07-02T11:33:32;5.63;;;2.10;;
40459;SDS011;26164;51.138;16.952;2023-07-02T11:35:58;2.17;;;1.10;;
40459;SDS011;26164;51.138;16.952;2023-07-02T11:38:24;3.67;;;1.00;;
40459;SDS011;26164;51.138;16.952;2023-07-02T11:40:50;1.85;;;1.10;;
40459;SDS011;26164;51.138;16.952;2023-07-02T11:43:17;1.85;;;1.17;;
40459;SDS011;26164;51.138;16.952;2023-07-02T11:45:44;2.00;;;0.93;;
40459;SDS011;26164;51.138;16.952;2023-07-02T11:48:09;4.25;;;1.45;;
40459;SDS011;26164;51.138;16.952;2023-07-02T11:50:35;2.95;;;1.02;;
40459;SDS011;26164;51.138;16.952;2023-07-02T11:53:01;2.85;;;0.90;;
40459;SDS011;26164;51.138;16.952;2023-07-02T11:55:27;2.13;;;1.02;;
40459;SDS011;26164;51.138;16.952;2023-07-02T11:57:52;2.30;;;0.85;;
40459;SDS011;26164;51.138;16.952;2023-07-02T12:00:19;1.60;;;0.90;;
40459;SDS011;26164;51.138;16.952;2023-07-02T12:02:45;3.15;;;0.88;;
40459;SDS011;26164;51.138;16.952;2023-07-02T12:05:12;2.58;;;1.02;;
40459;SDS011;26164;51.138;16.952;2023-07-02T12:07:38;2.65;;;1.10;;
40459;SDS011;26164;51.138;16.952;2023-07-02T12:10:07;3.13;;;0.95;;
40459;SDS011;26164;51.138;16.952;2023-07-02T12:12:32;2.03;;;1.00;;
40459;SDS011;26164;51.138;16.952;2023-07-02T12:14:58;3.20;;;1.25;;
40459;SDS011;26164;51.138;16.952;2023-07-02T12:17:24;2.53;;;0.90;;
40459;SDS011;26164;51.138;16.952;2023-07-02T12:19:50;1.80;;;0.90;;
40459;SDS011;26164;51.138;16.952;2023-07-02T12:22:16;1.40;;;0.80;;
40459;SDS011;26164;51.138;16.952;2023-07-02T12:24:43;7.82;;;0.90;;
40459;SDS011;26164;51.138;16.952;2023-07-02T12:27:10;3.85;;;0.95;;
40459;SDS011;26164;51.138;16.952;2023-07-02T12:29:35;0.98;;;0.60;;
40459;SDS011;26164;51.138;16.952;2023-07-02T12:32:01;3.25;;;0.90;;
40459;SDS011;26164;51.138;16.952;2023-07-02T12:34:28;1.95;;;1.00;;
40459;SDS011;26164;51.138;16.952;2023-07-02T12:36:54;4.13;;;1.00;;
40459;SDS011;26164;51.138;16.952;2023-07-02T12:39:21;2.53;;;1.05;;
40459;SDS011;26164;51.138;16.952;2023-07-02T12:41:46;2.00;;;0.88;;
40459;SDS011;26164;51.138;16.952;2023-07-02T12:44:12;2.60;;;0.90;;
40459;SDS011;26164;51.138;16.952;2023-07-02T12:46:38;1.77;;;0.80;;
40459;SDS011;26164;51.138;16.952;2023-07-02T12:49:05;1.48;;;0.75;;
40459;SDS011;26164;51.138;16.952;2023-07-02T12:51:31;2.78;;;0.80;;
40459;SDS011;26164;51.138;16.952;2023-07-02T12:53:57;2.03;;;1.10;;
40459;SDS011;26164;51.138;16.952;2023-07-02T12:56:22;1.65;;;0.88;;
40459;SDS011;26164;51.138;16.952;2023-07-02T12:58:49;2.55;;;0.95;;
40459;SDS011;26164;51.138;16.952;2023-07-02T13:01:16;2.55;;;0.85;;
40459;SDS011;26164;51.138;16.952;2023-07-02T13:03:46;1.88;;;0.90;;
40459;SDS011;26164;51.138;16.952;2023-07-02T13:06:15;7.25;;;0.90;;
40459;SDS011;26164;51.138;16.952;2023-07-02T13:08:41;3.65;;;1.00;;
40459;SDS011;26164;51.138;16.952;2023-07-02T13:11:07;5.47;;;0.90;;
40459;SDS011;26164;51.138;16.952;2023-07-02T13:13:34;2.15;;;0.80;;
40459;SDS011;26164;51.138;16.952;2023-07-02T13:16:01;2.65;;;0.70;;
40459;SDS011;26164;51.138;16.952;2023-07-02T13:18:28;7.65;;;1.95;;
40459;SDS011;26164;51.138;16.952;2023-07-02T13:20:53;1.63;;;0.68;;
40459;SDS011;26164;51.138;16.952;2023-07-02T13:23:19;1.98;;;0.80;;
40459;SDS011;26164;51.138;16.952;2023-07-02T13:25:45;4.05;;;0.80;;
40459;SDS011;26164;51.138;16.952;2023-07-02T13:28:11;1.33;;;0.80;;
40459;SDS011;26164;51.138;16.952;2023-07-02T13:30:36;1.98;;;0.90;;
40459;SDS011;26164;51.138;16.952;2023-07-02T13:33:02;2.20;;;1.10;;
40459;SDS011;26164;51.138;16.952;2023-07-02T13:35:28;4.45;;;0.88;;
40459;SDS011;26164;51.138;16.952;2023-07-02T13:37:54;2.28;;;0.93;;
40459;SDS011;26164;51.138;16.952;2023-07-02T13:40:20;2.40;;;0.73;;
40459;SDS011;26164;51.138;16.952;2023-07-02T13:42:46;2.85;;;0.82;;
40459;SDS011;26164;51.138;16.952;2023-07-02T13:45:12;3.10;;;0.77;;
40459;SDS011;26164;51.138;16.952;2023-07-02T13:47:38;1.58;;;0.70;;
40459;SDS011;26164;51.138;16.952;2023-07-02T13:50:03;1.75;;;1.05;;
40459;SDS011;26164;51.138;16.952;2023-07-02T13:52:30;3.05;;;0.90;;
40459;SDS011;26164;51.138;16.952;2023-07-02T13:54:56;2.20;;;0.77;;
40459;SDS011;26164;51.138;16.952;2023-07-02T13:57:22;3.20;;;0.80;;
40459;SDS011;26164;51.138;16.952;2023-07-02T13:59:47;1.92;;;0.80;;
40459;SDS011;26164;51.138;16.952;2023-07-02T14:02:13;3.35;;;0.65;;
40459;SDS011;26164;51.138;16.952;2023-07-02T14:04:39;1.85;;;0.70;;
40459;SDS011;26164;51.138;16.952;2023-07-02T14:07:05;5.78;;;0.88;;
40459;SDS011;26164;51.138;16.952;2023-07-02T14:09:31;4.15;;;0.82;;
40459;SDS011;26164;51.138;16.952;2023-07-02T14:11:58;1.70;;;0.90;;
40459;SDS011;26164;51.138;16.952;2023-07-02T14:14:23;3.67;;;0.80;;
40459;SDS011;26164;51.138;16.952;2023-07-02T14:16:49;1.52;;;0.90;;
40459;SDS011;26164;51.138;16.952;2023-07-02T14:19:15;6.00;;;0.75;;
40459;SDS011;26164;51.138;16.952;2023-07-02T14:21:42;2.17;;;0.73;;
40459;SDS011;26164;51.138;16.952;2023-07-02T14:24:08;2.78;;;1.00;;
40459;SDS011;26164;51.138;16.952;2023-07-02T14:26:35;1.50;;;0.90;;
40459;SDS011;26164;51.138;16.952;2023-07-02T14:29:00;2.15;;;1.02;;
40459;SDS011;26164;51.138;16.952;2023-07-02T14:31:27;2.53;;;1.00;;
40459;SDS011;26164;51.138;16.952;2023-07-02T14:33:52;2.95;;;0.75;;
40459;SDS011;26164;51.138;16.952;2023-07-02T14:36:18;1.77;;;0.80;;